createdAt,value
2023-02-24T00:01:59.170Z,100134.59
2023-02-24T00:04:27.405Z,100134.22
2023-02-24T00:06:54.100Z,100135.38
2023-02-24T00:09:23.212Z,100126.44
2023-02-24T00:12:01.891Z,100120.31
2023-02-24T00:14:30.711Z,100122.88
2023-02-24T00:16:57.956Z,100116.28
2023-02-24T00:19:26.363Z,100114.28
2023-02-24T00:21:55.893Z,100110.41
2023-02-24T00:24:22.781Z,100108.56
2023-02-24T00:26:58.624Z,100108.25
2023-02-24T00:29:26.262Z,100105.38
2023-02-24T00:31:58.484Z,100095.94
2023-02-24T00:34:29.788Z,100093.38
2023-02-24T00:36:58.026Z,100091.53
2023-02-24T00:39:29.922Z,100095.41
2023-02-24T00:42:03.740Z,100090.00
2023-02-24T00:44:35.456Z,100090.00
2023-02-24T00:47:04.297Z,100082.53
2023-02-24T00:49:35.121Z,100082.16
2023-02-24T00:52:07.383Z,100072.19
2023-02-24T00:54:36.746Z,100062.75
2023-02-24T00:57:03.616Z,100055.47
2023-02-24T00:59:30.023Z,100057.84
2023-02-24T01:01:56.565Z,100055.53
2023-02-24T01:04:23.133Z,100062.63
2023-02-24T01:06:59.503Z,100061.63
2023-02-24T01:09:27.586Z,100062.63
2023-02-24T01:12:13.263Z,100060.25
2023-02-24T01:14:39.837Z,100059.56
2023-02-24T01:17:07.795Z,100063.97
2023-02-24T01:19:35.936Z,100054.31
2023-02-24T01:22:05.200Z,100052.44
2023-02-24T01:24:37.327Z,100048.06
2023-02-24T01:27:04.710Z,100048.91
2023-02-24T01:29:31.300Z,100043.66
2023-02-24T01:31:58.104Z,100036.72
2023-02-24T01:34:26.933Z,100047.88
2023-02-24T01:36:54.011Z,100037.56
2023-02-24T01:39:21.147Z,100044.47
2023-02-24T01:41:49.844Z,100031.78
2023-02-24T01:44:22.229Z,100029.78
2023-02-24T01:46:52.221Z,100027.22
2023-02-24T01:49:29.022Z,100018.28
2023-02-24T01:52:01.304Z,100020.44
2023-02-24T01:54:32.082Z,100011.13
2023-02-24T01:56:59.129Z,100009.09
2023-02-24T01:59:29.477Z,100010.28
2023-02-24T02:02:05.984Z,100008.25
2023-02-24T02:04:49.854Z,100005.38
2023-02-24T02:07:21.189Z,99994.91
2023-02-24T02:09:48.559Z,100002.84
2023-02-24T02:12:15.619Z,99990.66
2023-02-24T02:14:47.551Z,99994.22
2023-02-24T02:17:16.553Z,99993.53
2023-02-24T02:20:15.979Z,99993.84
2023-02-24T02:23:08.798Z,99990.13
2023-02-24T02:26:10.140Z,99991.84
2023-02-24T02:28:44.682Z,99984.41
2023-02-24T02:31:31.283Z,99992.53
2023-02-24T02:34:21.839Z,99978.69
2023-02-24T02:37:12.165Z,99968.88
2023-02-24T02:39:47.216Z,99972.09
2023-02-24T02:42:40.722Z,99969.56
2023-02-24T02:45:30.117Z,99971.25
2023-02-24T02:48:06.024Z,99965.69
2023-02-24T02:50:42.459Z,99963.16
2023-02-24T02:53:15.269Z,99960.44
2023-02-24T02:56:10.839Z,99965.50
2023-02-24T02:58:45.389Z,99964.81
2023-02-24T03:01:16.727Z,99955.84
2023-02-24T03:03:48.539Z,99951.25
2023-02-24T03:06:23.023Z,99949.72
2023-02-24T03:09:15.061Z,99951.25
2023-02-24T03:11:47.585Z,99953.44
2023-02-24T03:14:17.597Z,99952.94
2023-02-24T03:16:48.348Z,99946.31
2023-02-24T03:19:19.834Z,99945.38
2023-02-24T03:21:57.230Z,99945.31
2023-02-24T03:24:23.697Z,99944.28
2023-02-24T03:27:28.671Z,99944.44
2023-02-24T03:30:06.427Z,99947.16
2023-02-24T03:32:43.143Z,99949.38
2023-02-24T03:35:33.611Z,99941.13
2023-02-24T03:38:02.392Z,99939.22
2023-02-24T03:40:35.226Z,99941.84
2023-02-24T03:43:09.326Z,99937.66
2023-02-24T03:45:38.104Z,99946.00
2023-02-24T03:48:07.226Z,99935.44
2023-02-24T03:50:34.465Z,99939.81
2023-02-24T03:53:46.066Z,99934.72
2023-02-24T03:56:28.007Z,99939.09
2023-02-24T03:59:25.253Z,99925.66
2023-02-24T04:02:00.227Z,99925.75
2023-02-24T04:04:42.724Z,99930.44
2023-02-24T04:07:52.409Z,99936.59
2023-02-24T04:10:51.682Z,99925.16
2023-02-24T04:13:42.520Z,99916.53
2023-02-24T04:16:35.568Z,99924.00
2023-02-24T04:19:08.446Z,99924.47
2023-02-24T04:21:38.254Z,99917.56
2023-02-24T04:24:10.794Z,99918.72
2023-02-24T04:26:41.861Z,99911.06
2023-02-24T04:29:16.716Z,99911.59
2023-02-24T04:31:52.726Z,99911.28
2023-02-24T04:34:19.469Z,99906.03
2023-02-24T04:36:48.820Z,99896.88
2023-02-24T04:39:18.197Z,99895.03
2023-02-24T04:41:50.082Z,99892.53
2023-02-24T04:44:17.798Z,99892.22
2023-02-24T04:46:45.708Z,99892.91
2023-02-24T04:49:12.734Z,99889.50
2023-02-24T04:51:43.903Z,99892.22
2023-02-24T04:54:16.497Z,99887.94
2023-02-24T04:56:47.188Z,99883.63
2023-02-24T04:59:14.463Z,99878.94
2023-02-24T05:01:43.427Z,99876.72
2023-02-24T05:04:11.144Z,99882.25
2023-02-24T05:06:43.084Z,99880.50
2023-02-24T05:09:18.851Z,99878.66
2023-02-24T05:11:50.215Z,99871.66
2023-02-24T05:14:20.126Z,99868.66
2023-02-24T05:16:48.246Z,99862.19
2023-02-24T05:19:36.702Z,99867.53
2023-02-24T05:22:06.174Z,99863.50
2023-02-24T05:24:33.947Z,99870.44
2023-02-24T05:27:02.924Z,99866.03
2023-02-24T05:29:32.501Z,99860.13
2023-02-24T05:31:59.751Z,99852.72
2023-02-24T05:34:29.815Z,99858.75
2023-02-24T05:36:58.555Z,99854.97
2023-02-24T05:39:25.935Z,99861.69
2023-02-24T05:41:54.187Z,99855.97
2023-02-24T05:44:21.988Z,99848.88
2023-02-24T05:46:55.920Z,99854.44
2023-02-24T05:49:26.213Z,99853.91
2023-02-24T05:51:55.869Z,99845.81
2023-02-24T05:54:34.748Z,99857.44
2023-02-24T05:57:04.528Z,99848.13
2023-02-24T05:59:32.328Z,99846.28
2023-02-24T06:02:08.517Z,99843.59
2023-02-24T06:04:40.418Z,99842.03
2023-02-24T06:07:13.252Z,99842.41
2023-02-24T06:09:42.249Z,99837.28
2023-02-24T06:12:09.444Z,99832.25
2023-02-24T06:14:35.711Z,99834.56
2023-02-24T06:17:04.054Z,99839.44
2023-02-24T06:19:31.343Z,99828.25
2023-02-24T06:22:01.784Z,99827.16
2023-02-24T06:24:29.803Z,99826.78
2023-02-24T06:27:08.940Z,99823.09
2023-02-24T06:29:36.981Z,99826.94
2023-02-24T06:32:07.879Z,99826.00
2023-02-24T06:34:38.521Z,99831.34
2023-02-24T06:37:07.144Z,99815.38
2023-02-24T06:39:37.013Z,99809.00
2023-02-24T06:42:04.595Z,99823.47
2023-02-24T06:44:33.168Z,99819.72
2023-02-24T06:47:00.355Z,99819.78
2023-02-24T06:49:27.165Z,99812.53
2023-02-24T06:51:54.510Z,99819.69
2023-02-24T06:54:27.707Z,99821.75
2023-02-24T06:56:54.919Z,99814.59
2023-02-24T06:59:21.224Z,99823.16
2023-02-24T07:01:48.588Z,99820.47
2023-02-24T07:04:16.426Z,99818.63
2023-02-24T07:06:47.120Z,99819.84
2023-02-24T07:09:15.449Z,99815.31
2023-02-24T07:11:51.177Z,99812.63
2023-02-24T07:14:21.741Z,99816.78
2023-02-24T07:16:53.329Z,99822.78
2023-02-24T07:19:22.943Z,99833.66
2023-02-24T07:21:51.815Z,99845.50
2023-02-24T07:24:24.816Z,99841.63
2023-02-24T07:26:57.334Z,99842.19
2023-02-24T07:29:25.169Z,99838.06
2023-02-24T07:31:57.269Z,99835.16
2023-02-24T07:34:25.184Z,99843.34
2023-02-24T07:36:52.546Z,99841.69
2023-02-24T07:39:18.980Z,99840.25
2023-02-24T07:41:48.732Z,99836.66
2023-02-24T07:44:17.193Z,99835.22
2023-02-24T07:46:44.677Z,99832.13
2023-02-24T07:49:14.108Z,99836.06
2023-02-24T07:51:41.886Z,99832.38
2023-02-24T07:54:10.822Z,99828.38
2023-02-24T07:56:45.243Z,99830.06
2023-02-24T07:59:15.233Z,99826.09
2023-02-24T08:01:49.056Z,99826.50
2023-02-24T08:04:22.632Z,99831.56
2023-02-24T08:06:55.137Z,99826.16
2023-02-24T08:09:44.360Z,99825.59
2023-02-24T08:12:17.261Z,99820.72
2023-02-24T08:14:49.820Z,99817.63
2023-02-24T08:17:22.312Z,99826.38
2023-02-24T08:20:07.642Z,99816.03
2023-02-24T08:22:36.609Z,99816.03
2023-02-24T08:25:05.513Z,99824.00
2023-02-24T08:27:38.223Z,99817.41
2023-02-24T08:30:20.466Z,99812.81
2023-02-24T08:32:51.820Z,99806.16
2023-02-24T08:35:22.342Z,99809.88
2023-02-24T08:37:52.511Z,99813.38
2023-02-24T08:40:31.621Z,99811.84
2023-02-24T08:42:59.667Z,99808.00
2023-02-24T08:45:32.679Z,99811.13
2023-02-24T08:47:59.852Z,99801.47
2023-02-24T08:50:33.050Z,99810.09
2023-02-24T08:53:02.888Z,99798.88
2023-02-24T08:55:32.253Z,99775.97
2023-02-24T08:58:02.143Z,99786.28
2023-02-24T09:00:48.228Z,99779.22
2023-02-24T09:03:32.793Z,99774.22
2023-02-24T09:06:02.595Z,99785.28
2023-02-24T09:08:37.600Z,99771.22
2023-02-24T09:11:07.196Z,99760.59
2023-02-24T09:13:50.836Z,99764.50
2023-02-24T09:16:22.767Z,99767.88
2023-02-24T09:19:09.066Z,99764.75
2023-02-24T09:21:45.810Z,99756.13
2023-02-24T09:24:14.485Z,99762.75
2023-02-24T09:26:42.942Z,99754.34
2023-02-24T09:29:31.276Z,99749.03
2023-02-24T09:32:03.995Z,99741.03
2023-02-24T09:34:36.037Z,99750.19
2023-02-24T09:37:03.799Z,99733.03
2023-02-24T09:39:53.731Z,99745.41
2023-02-24T09:42:23.200Z,99737.09
2023-02-24T09:44:55.012Z,99730.69
2023-02-24T09:47:54.790Z,99732.94
2023-02-24T09:50:55.496Z,99734.50
2023-02-24T09:53:16.712Z,99717.28
2023-02-24T09:56:04.923Z,99719.78
2023-02-24T09:58:46.983Z,99711.16
2023-02-24T10:01:52.247Z,99712.84
2023-02-24T10:04:35.305Z,99716.56
2023-02-24T10:07:06.857Z,99724.78
2023-02-24T10:09:35.143Z,99702.47
2023-02-24T10:12:28.249Z,99718.31
2023-02-24T10:15:18.850Z,99702.97
2023-02-24T10:18:28.833Z,99706.72
2023-02-24T10:21:29.923Z,99692.03
2023-02-24T10:24:33.714Z,99688.16
2023-02-24T10:27:25.153Z,99685.78
2023-02-24T10:30:00.299Z,99687.47
2023-02-24T10:32:49.095Z,99675.00
2023-02-24T10:35:19.261Z,99665.75
2023-02-24T10:37:46.328Z,99665.22
2023-02-24T10:40:26.075Z,99663.59
2023-02-24T10:43:09.858Z,99657.03
2023-02-24T10:45:44.627Z,99656.59
2023-02-24T10:48:42.788Z,99644.81
2023-02-24T10:51:21.620Z,99646.03
2023-02-24T10:54:09.206Z,99648.25
2023-02-24T10:56:43.669Z,99642.81
2023-02-24T10:59:23.878Z,99634.63
2023-02-24T11:02:28.743Z,99629.94
2023-02-24T11:05:02.938Z,99611.56
2023-02-24T11:07:52.863Z,99612.44
2023-02-24T11:10:25.563Z,99604.91
2023-02-24T11:13:13.852Z,99603.69
2023-02-24T11:16:11.871Z,99596.13
2023-02-24T11:18:39.717Z,99590.34
2023-02-24T11:21:10.349Z,99587.59
2023-02-24T11:23:44.568Z,99576.19
2023-02-24T11:26:18.324Z,99574.09
2023-02-24T11:29:00.506Z,99558.66
2023-02-24T11:31:42.129Z,99547.38
2023-02-24T11:34:29.006Z,99551.44
2023-02-24T11:36:55.890Z,99538.72
2023-02-24T11:39:44.973Z,99550.81
2023-02-24T11:42:19.428Z,99531.66
2023-02-24T11:45:00.817Z,99535.31
2023-02-24T11:47:45.028Z,99529.97
2023-02-24T11:50:45.683Z,99523.53
2023-02-24T11:53:23.192Z,99526.38
2023-02-24T11:55:57.772Z,99517.91
2023-02-24T11:58:32.309Z,99516.47
2023-02-24T12:01:24.140Z,99506.84
2023-02-24T12:03:50.614Z,99519.09
2023-02-24T12:06:28.677Z,99510.63
2023-02-24T12:09:02.480Z,99511.41
2023-02-24T12:12:02.621Z,99506.97
2023-02-24T12:14:42.305Z,99508.94
2023-02-24T12:17:17.650Z,99503.22
2023-02-24T12:19:56.938Z,99500.31
2023-02-24T12:22:31.711Z,99492.44
2023-02-24T12:24:58.195Z,99489.44
2023-02-24T12:28:23.067Z,99483.84
2023-02-24T12:31:04.949Z,99474.50
2023-02-24T12:33:51.484Z,99481.59
2023-02-24T12:36:47.287Z,99473.91
2023-02-24T12:39:29.046Z,99467.72
2023-02-24T12:42:07.125Z,99460.13
2023-02-24T12:45:10.729Z,99457.41
2023-02-24T12:47:37.000Z,99451.19
2023-02-24T12:50:10.001Z,99452.38
2023-02-24T12:53:15.200Z,99449.81
2023-02-24T12:56:00.821Z,99445.38
2023-02-24T12:58:33.994Z,99440.50
2023-02-24T13:01:26.469Z,99437.13
2023-02-24T13:04:18.703Z,99430.91
2023-02-24T13:07:06.751Z,99430.28
2023-02-24T13:09:54.742Z,99430.28
2023-02-24T13:12:32.195Z,99413.91
2023-02-24T13:14:58.829Z,99417.63
2023-02-24T13:17:26.385Z,99411.88
2023-02-24T13:19:54.719Z,99418.81
2023-02-24T13:22:26.256Z,99411.84
2023-02-24T13:25:08.203Z,99404.41
2023-02-24T13:27:39.900Z,99385.50
2023-02-24T13:30:26.323Z,99388.75
2023-02-24T13:33:27.552Z,99393.88
2023-02-24T13:36:24.846Z,99385.28
2023-02-24T13:39:05.016Z,99380.06
2023-02-24T13:41:31.232Z,99376.50
2023-02-24T13:44:23.103Z,99365.53
2023-02-24T13:47:08.534Z,99355.38
2023-02-24T13:50:14.172Z,99351.72
2023-02-24T13:52:49.984Z,99341.78
2023-02-24T13:55:25.731Z,99340.06
2023-02-24T13:58:19.668Z,99337.19
2023-02-24T14:01:06.666Z,99337.72
2023-02-24T14:03:33.883Z,99328.44
2023-02-24T14:06:01.470Z,99331.16
2023-02-24T14:08:36.071Z,99328.44
2023-02-24T14:11:03.336Z,99330.31
2023-02-24T14:13:33.532Z,99330.50
2023-02-24T14:16:04.193Z,99323.75
2023-02-24T14:18:30.657Z,99333.00
2023-02-24T14:20:58.218Z,99324.91
2023-02-24T14:23:31.321Z,99317.50
2023-02-24T14:25:59.404Z,99324.19
2023-02-24T14:28:35.308Z,99317.63
2023-02-24T14:31:14.503Z,99310.22
2023-02-24T14:33:44.176Z,99306.34
2023-02-24T14:36:24.257Z,99301.31
2023-02-24T14:39:15.844Z,99289.84
2023-02-24T14:41:43.367Z,99295.56
2023-02-24T14:44:20.522Z,99288.84
2023-02-24T14:46:56.120Z,99287.69
2023-02-24T14:49:25.921Z,99288.16
2023-02-24T14:52:21.376Z,99278.91
2023-02-24T14:55:02.889Z,99278.22
2023-02-24T14:57:51.126Z,99264.59
2023-02-24T15:00:23.545Z,99261.22
2023-02-24T15:03:13.387Z,99238.16
2023-02-24T15:05:46.831Z,99255.19
2023-02-24T15:08:30.458Z,99250.13
2023-02-24T15:10:57.753Z,99247.09
2023-02-24T15:13:41.823Z,99238.00
2023-02-24T15:16:27.511Z,99233.13
2023-02-24T15:18:58.406Z,99229.06
2023-02-24T15:21:38.228Z,99224.88
2023-02-24T15:24:20.831Z,99212.25
2023-02-24T15:26:56.446Z,99212.91
2023-02-24T15:29:26.453Z,99208.69
2023-02-24T15:31:54.676Z,99208.19
2023-02-24T15:34:34.311Z,99202.97
2023-02-24T15:37:12.088Z,99202.28
2023-02-24T15:39:41.733Z,99200.25
2023-02-24T15:42:27.786Z,99187.16
2023-02-24T15:44:57.102Z,99194.72
2023-02-24T15:47:27.629Z,99182.44
2023-02-24T15:49:54.451Z,99175.19
2023-02-24T15:52:27.633Z,99182.78
2023-02-24T15:54:58.794Z,99175.88
2023-02-24T15:57:27.181Z,99180.06
2023-02-24T15:59:54.214Z,99172.81
2023-02-24T16:02:22.823Z,99161.22
2023-02-24T16:04:51.100Z,99160.22
2023-02-24T16:07:31.721Z,99163.22
2023-02-24T16:10:00.387Z,99153.50
2023-02-24T16:12:31.455Z,99153.81
2023-02-24T16:15:03.335Z,99157.84
2023-02-24T16:17:38.092Z,99138.34
2023-02-24T16:20:08.422Z,99141.22
2023-02-24T16:22:35.089Z,99132.25
2023-02-24T16:25:02.960Z,99137.16
2023-02-24T16:27:29.897Z,99126.91
2023-02-24T16:29:57.504Z,99128.91
2023-02-24T16:32:25.275Z,99118.97
2023-02-24T16:34:52.943Z,99117.63
2023-02-24T16:37:25.958Z,99114.25
2023-02-24T16:39:53.324Z,99120.63
2023-02-24T16:42:21.834Z,99112.72
2023-02-24T16:44:49.552Z,99116.44
2023-02-24T16:47:20.375Z,99108.66
2023-02-24T16:49:47.234Z,99110.84
2023-02-24T16:52:16.555Z,99109.31
2023-02-24T16:54:43.145Z,99105.31
2023-02-24T16:57:09.434Z,99103.75
2023-02-24T16:59:36.062Z,99107.13
2023-02-24T17:02:03.026Z,99096.88
2023-02-24T17:04:31.420Z,99097.88
2023-02-24T17:06:57.915Z,99097.53
2023-02-24T17:09:28.020Z,99092.50
2023-02-24T17:11:54.550Z,99092.50
2023-02-24T17:14:21.246Z,99094.13
2023-02-24T17:16:48.098Z,99103.22
2023-02-24T17:19:15.005Z,99099.53
2023-02-24T17:21:43.710Z,99098.91
2023-02-24T17:24:19.007Z,99092.31
2023-02-24T17:26:46.135Z,99087.97
2023-02-24T17:29:14.731Z,99084.13
2023-02-24T17:31:41.754Z,99088.66
2023-02-24T17:34:08.819Z,99085.63
2023-02-24T17:36:35.156Z,99082.59
2023-02-24T17:39:02.227Z,99074.34
2023-02-24T17:41:29.045Z,99071.50
2023-02-24T17:43:55.868Z,99074.34
2023-02-24T17:46:22.834Z,99071.00
2023-02-24T17:48:50.324Z,99064.28
2023-02-24T17:51:18.572Z,99060.03
2023-02-24T17:53:45.337Z,99060.88
2023-02-24T17:56:11.675Z,99058.72
2023-02-24T17:58:38.608Z,99053.50
2023-02-24T18:01:06.020Z,99055.03
2023-02-24T18:03:34.690Z,99050.47
2023-02-24T18:06:08.592Z,99039.88
2023-02-24T18:08:37.531Z,99033.63
2023-02-24T18:11:06.238Z,99033.09
2023-02-24T18:13:33.715Z,99018.00
2023-02-24T18:16:00.782Z,99019.00
2023-02-24T18:18:29.576Z,99019.84
2023-02-24T18:21:01.237Z,99019.66
2023-02-24T18:23:28.811Z,99014.78
2023-02-24T18:25:55.458Z,99011.59
2023-02-24T18:28:22.335Z,99008.25
2023-02-24T18:30:48.988Z,99008.59
2023-02-24T18:33:16.152Z,99006.91
2023-02-24T18:35:42.686Z,99004.88
2023-02-24T18:38:09.647Z,99006.91
2023-02-24T18:40:36.077Z,99005.19
2023-02-24T18:43:03.330Z,98996.97
2023-02-24T18:45:30.523Z,98993.28
2023-02-24T18:48:01.239Z,98990.59
2023-02-24T18:50:27.995Z,98986.72
2023-02-24T18:52:54.866Z,98990.59
2023-02-24T18:55:21.545Z,98990.75
2023-02-24T18:57:48.385Z,98985.56
2023-02-24T19:00:15.685Z,98976.13
2023-02-24T19:02:42.936Z,98978.47
2023-02-24T19:05:10.132Z,98981.66
2023-02-24T19:07:37.324Z,98976.97
2023-02-24T19:10:05.106Z,98975.47
2023-02-24T19:12:32.076Z,98970.41
2023-02-24T19:14:59.184Z,98965.88
2023-02-24T19:17:25.963Z,98958.97
2023-02-24T19:19:53.776Z,98952.25
2023-02-24T19:22:20.600Z,98946.69
2023-02-24T19:24:47.140Z,98950.50
2023-02-24T19:27:13.885Z,98944.09
2023-02-24T19:29:40.437Z,98938.38
2023-02-24T19:32:07.516Z,98937.72
2023-02-24T19:34:34.202Z,98931.03
2023-02-24T19:37:01.370Z,98936.53
2023-02-24T19:39:27.561Z,98930.31
2023-02-24T19:41:56.736Z,98924.78
2023-02-24T19:44:23.635Z,98927.97
2023-02-24T19:46:50.769Z,98919.22
2023-02-24T19:49:17.368Z,98922.97
2023-02-24T19:51:45.616Z,98917.78
2023-02-24T19:54:13.894Z,98917.09
2023-02-24T19:56:40.796Z,98913.41
2023-02-24T19:59:08.069Z,98915.47
2023-02-24T20:01:34.906Z,98911.19
2023-02-24T20:04:03.792Z,98908.50
2023-02-24T20:06:35.088Z,98902.78
2023-02-24T20:09:05.981Z,98909.31
2023-02-24T20:11:37.689Z,98907.13
2023-02-24T20:14:05.589Z,98905.44
2023-02-24T20:16:33.988Z,98904.75
2023-02-24T20:19:01.311Z,98903.75
2023-02-24T20:21:28.371Z,98900.03
2023-02-24T20:23:58.423Z,98897.66
2023-02-24T20:26:25.390Z,98895.69
2023-02-24T20:28:51.821Z,98897.31
2023-02-24T20:31:19.507Z,98887.91
2023-02-24T20:33:47.157Z,98891.59
2023-02-24T20:36:23.061Z,98880.88
2023-02-24T20:38:50.857Z,98880.34
2023-02-24T20:41:19.395Z,98877.97
2023-02-24T20:43:46.098Z,98884.53
2023-02-24T20:46:26.269Z,98878.97
2023-02-24T20:48:58.625Z,98872.94
2023-02-24T20:51:27.274Z,98873.09
2023-02-24T20:53:57.971Z,98866.22
2023-02-24T20:56:29.407Z,98860.69
2023-02-24T20:59:07.705Z,98858.34
2023-02-24T21:01:35.807Z,98852.66
2023-02-24T21:04:03.044Z,98845.91
2023-02-24T21:06:30.675Z,98852.31
2023-02-24T21:08:57.885Z,98842.94
2023-02-24T21:11:24.945Z,98840.28
2023-02-24T21:13:54.125Z,98854.00
2023-02-24T21:16:22.929Z,98848.97
2023-02-24T21:18:52.372Z,98841.59
2023-02-24T21:21:20.319Z,98834.19
2023-02-24T21:23:47.900Z,98834.19
2023-02-24T21:26:15.429Z,98831.53
2023-02-24T21:28:42.062Z,98832.00
2023-02-24T21:31:10.827Z,98825.97
2023-02-24T21:33:38.248Z,98821.75
2023-02-24T21:36:11.580Z,98814.91
2023-02-24T21:38:38.102Z,98808.88
2023-02-24T21:41:14.083Z,98808.13
2023-02-24T21:43:42.071Z,98800.91
2023-02-24T21:46:10.738Z,98802.59
2023-02-24T21:48:38.548Z,98800.56
2023-02-24T21:51:08.819Z,98809.97
2023-02-24T21:53:38.787Z,98809.69
2023-02-24T21:56:17.540Z,98803.31
2023-02-24T21:58:57.494Z,98809.19
2023-02-24T22:01:30.426Z,98800.31
2023-02-24T22:03:59.982Z,98802.97
2023-02-24T22:06:31.328Z,98805.84
2023-02-24T22:09:00.037Z,98797.44
2023-02-24T22:11:30.114Z,98794.78
2023-02-24T22:13:57.159Z,98787.72
2023-02-24T22:16:25.335Z,98796.13
2023-02-24T22:18:53.874Z,98782.88
2023-02-24T22:21:23.514Z,98780.19
2023-02-24T22:23:55.419Z,98770.13
2023-02-24T22:26:26.235Z,98779.84
2023-02-24T22:28:53.726Z,98767.63
2023-02-24T22:31:23.442Z,98770.78
2023-02-24T22:33:50.086Z,98764.41
2023-02-24T22:36:24.583Z,98760.88
2023-02-24T22:38:54.415Z,98761.75
2023-02-24T22:41:23.994Z,98757.88
2023-02-24T22:43:50.917Z,98747.97
2023-02-24T22:46:21.079Z,98749.50
2023-02-24T22:48:49.586Z,98743.97
2023-02-24T22:51:16.413Z,98738.94
2023-02-24T22:53:46.472Z,98735.09
2023-02-24T22:56:15.805Z,98739.28
2023-02-24T22:58:42.718Z,98725.69
2023-02-24T23:01:11.940Z,98735.44
2023-02-24T23:03:39.340Z,98737.94
2023-02-24T23:06:14.797Z,98730.22
2023-02-24T23:08:45.315Z,98733.91
2023-02-24T23:11:21.331Z,98725.16
2023-02-24T23:13:54.174Z,98733.91
2023-02-24T23:16:37.862Z,98732.56
2023-02-24T23:19:19.840Z,98728.03
2023-02-24T23:21:54.997Z,98725.00
2023-02-24T23:24:26.653Z,98724.34
2023-02-24T23:26:57.286Z,98722.31
2023-02-24T23:29:30.283Z,98713.44
2023-02-24T23:31:59.406Z,98714.78
2023-02-24T23:34:26.065Z,98717.13
2023-02-24T23:36:54.334Z,98707.88
2023-02-24T23:39:23.062Z,98700.00
2023-02-24T23:41:57.471Z,98706.72
2023-02-24T23:44:24.412Z,98694.47
2023-02-24T23:46:50.966Z,98693.13
2023-02-24T23:49:17.191Z,98688.94
2023-02-24T23:51:48.610Z,98685.94
2023-02-24T23:54:19.604Z,98691.59
2023-02-24T23:56:46.754Z,98678.53
2023-02-24T23:59:13.397Z,98686.06
